sensor_id;sensor_type;location;lat;lon;timestamp;pressure;altitude;pressure_sealevel;temperature;humidity
12879;BME280;20617;49.476;10.986;2022-12-29T00:00:41;97836.28;;;8.03;100.00
12879;BME280;20617;49.476;10.986;2022-12-29T00:02:49;97837.84;;;8.07;100.00
12879;BME280;20617;49.476;10.986;2022-12-29T00:04:54;97839.38;;;8.13;100.00
12879;BME280;20617;49.476;10.986;2022-12-29T00:06:59;97842.78;;;8.13;100.00
12879;BME280;20617;49.476;10.986;2022-12-29T00:09:06;97840.09;;;8.16;100.00
12879;BME280;20617;49.476;10.986;2022-12-29T00:11:14;97839.19;;;8.18;100.00
12879;BME280;20617;49.476;10.986;2022-12-29T00:13:19;97838.28;;;8.19;100.00
12879;BME280;20617;49.476;10.986;2022-12-29T00:15:37;97836.47;;;8.21;100.00
12879;BME280;20617;49.476;10.986;2022-12-29T00:17:42;97830.25;;;8.25;100.00
12879;BME280;20617;49.476;10.986;2022-12-29T00:19:49;97828.47;;;8.27;100.00
12879;BME280;20617;49.476;10.986;2022-12-29T00:22:08;97832.56;;;8.32;100.00
12879;BME280;20617;49.476;10.986;2022-12-29T00:24:26;97827.50;;;8.29;100.00
12879;BME280;20617;49.476;10.986;2022-12-29T00:26:43;97828.38;;;8.28;100.00
12879;BME280;20617;49.476;10.986;2022-12-29T00:29:00;97824.09;;;8.27;100.00
12879;BME280;20617;49.476;10.986;2022-12-29T00:31:18;97815.38;;;8.30;100.00
12879;BME280;20617;49.476;10.986;2022-12-29T00:33:36;97818.81;;;8.30;100.00
12879;BME280;20617;49.476;10.986;2022-12-29T00:35:59;97823.97;;;8.30;100.00
12879;BME280;20617;49.476;10.986;2022-12-29T00:38:07;97813.75;;;8.27;100.00
12879;BME280;20617;49.476;10.986;2022-12-29T00:40:25;97816.13;;;8.32;100.00
12879;BME280;20617;49.476;10.986;2022-12-29T00:42:42;97813.53;;;8.32;100.00
12879;BME280;20617;49.476;10.986;2022-12-29T00:45:00;97815.28;;;8.31;100.00
12879;BME280;20617;49.476;10.986;2022-12-29T00:47:05;97804.75;;;8.36;100.00
12879;BME280;20617;49.476;10.986;2022-12-29T00:49:13;97813.38;;;8.36;100.00
12879;BME280;20617;49.476;10.986;2022-12-29T00:51:33;97803.91;;;8.35;100.00
12879;BME280;20617;49.476;10.986;2022-12-29T00:53:38;97810.78;;;8.36;100.00
12879;BME280;20617;49.476;10.986;2022-12-29T00:55:44;97801.22;;;8.37;100.00
12879;BME280;20617;49.476;10.986;2022-12-29T00:57:49;97810.84;;;8.35;100.00
12879;BME280;20617;49.476;10.986;2022-12-29T00:59:54;97802.06;;;8.37;100.00
12879;BME280;20617;49.476;10.986;2022-12-29T01:01:58;97805.38;;;8.43;100.00
12879;BME280;20617;49.476;10.986;2022-12-29T01:04:04;97808.75;;;8.45;100.00
12879;BME280;20617;49.476;10.986;2022-12-29T01:06:10;97808.75;;;8.45;100.00
12879;BME280;20617;49.476;10.986;2022-12-29T01:08:18;97806.16;;;8.45;100.00
12879;BME280;20617;49.476;10.986;2022-12-29T01:10:23;97806.88;;;8.48;100.00
12879;BME280;20617;49.476;10.986;2022-12-29T01:12:26;97805.09;;;8.49;100.00
12879;BME280;20617;49.476;10.986;2022-12-29T01:14:47;97804.97;;;8.52;100.00
12879;BME280;20617;49.476;10.986;2022-12-29T01:16:54;97807.53;;;8.53;100.00
12879;BME280;20617;49.476;10.986;2022-12-29T01:19:00;97800.47;;;8.57;100.00
12879;BME280;20617;49.476;10.986;2022-12-29T01:21:06;97796.09;;;8.57;100.00
12879;BME280;20617;49.476;10.986;2022-12-29T01:23:10;97795.28;;;8.57;100.00
12879;BME280;20617;49.476;10.986;2022-12-29T01:25:18;97791.72;;;8.59;100.00
12879;BME280;20617;49.476;10.986;2022-12-29T01:27:23;97795.94;;;8.62;100.00
12879;BME280;20617;49.476;10.986;2022-12-29T01:29:28;97793.19;;;8.65;100.00
12879;BME280;20617;49.476;10.986;2022-12-29T01:31:33;97789.50;;;8.71;100.00
12879;BME280;20617;49.476;10.986;2022-12-29T01:33:38;97784.19;;;8.74;100.00
12879;BME280;20617;49.476;10.986;2022-12-29T01:35:43;97783.22;;;8.76;100.00
12879;BME280;20617;49.476;10.986;2022-12-29T01:37:48;97778.88;;;8.77;100.00
12879;BME280;20617;49.476;10.986;2022-12-29T01:39:53;97773.69;;;8.77;100.00
12879;BME280;20617;49.476;10.986;2022-12-29T01:42:00;97772.84;;;8.76;100.00
12879;BME280;20617;49.476;10.986;2022-12-29T01:46:41;97773.50;;;8.81;100.00
12879;BME280;20617;49.476;10.986;2022-12-29T01:48:48;97769.06;;;8.83;100.00
12879;BME280;20617;49.476;10.986;2022-12-29T01:50:55;97775.03;;;8.86;100.00
12879;BME280;20617;49.476;10.986;2022-12-29T01:53:04;97771.53;;;8.87;100.00
12879;BME280;20617;49.476;10.986;2022-12-29T01:55:12;97768.03;;;8.88;100.00
12879;BME280;20617;49.476;10.986;2022-12-29T01:57:25;97767.25;;;8.86;100.00
12879;BME280;20617;49.476;10.986;2022-12-29T01:59:35;97762.97;;;8.84;100.00
12879;BME280;20617;49.476;10.986;2022-12-29T02:01:44;97769.84;;;8.86;100.00
12879;BME280;20617;49.476;10.986;2022-12-29T02:03:50;97755.19;;;8.84;100.00
12879;BME280;20617;49.476;10.986;2022-12-29T02:05:58;97756.69;;;8.90;100.00
12879;BME280;20617;49.476;10.986;2022-12-29T02:08:06;97761.94;;;8.89;100.00
12879;BME280;20617;49.476;10.986;2022-12-29T02:10:11;97750.50;;;8.93;100.00
12879;BME280;20617;49.476;10.986;2022-12-29T02:12:22;97754.78;;;8.94;100.00
12879;BME280;20617;49.476;10.986;2022-12-29T02:14:28;97752.09;;;8.95;100.00
12879;BME280;20617;49.476;10.986;2022-12-29T02:16:43;97751.84;;;9.01;100.00
12879;BME280;20617;49.476;10.986;2022-12-29T02:18:59;97744.00;;;9.03;100.00
12879;BME280;20617;49.476;10.986;2022-12-29T02:21:33;97747.38;;;9.05;100.00
12879;BME280;20617;49.476;10.986;2022-12-29T02:24:12;97745.47;;;9.09;100.00
12879;BME280;20617;49.476;10.986;2022-12-29T02:26:34;97734.03;;;9.13;100.00
12879;BME280;20617;49.476;10.986;2022-12-29T02:29:03;97733.06;;;9.15;100.00
12879;BME280;20617;49.476;10.986;2022-12-29T02:31:19;97740.84;;;9.15;100.00
12879;BME280;20617;49.476;10.986;2022-12-29T02:33:35;97743.16;;;9.21;100.00
12879;BME280;20617;49.476;10.986;2022-12-29T02:35:48;97739.81;;;9.19;100.00
12879;BME280;20617;49.476;10.986;2022-12-29T02:38:01;97737.13;;;9.21;100.00
12879;BME280;20617;49.476;10.986;2022-12-29T02:40:20;97737.91;;;9.23;100.00
12879;BME280;20617;49.476;10.986;2022-12-29T02:42:33;97735.19;;;9.26;100.00
12879;BME280;20617;49.476;10.986;2022-12-29T02:44:52;97734.25;;;9.27;100.00
12879;BME280;20617;49.476;10.986;2022-12-29T02:47:05;97737.69;;;9.27;100.00
12879;BME280;20617;49.476;10.986;2022-12-29T02:49:15;97739.41;;;9.28;100.00
12879;BME280;20617;49.476;10.986;2022-12-29T02:51:26;97732.44;;;9.29;100.00
12879;BME280;20617;49.476;10.986;2022-12-29T02:53:35;97738.44;;;9.31;100.00
12879;BME280;20617;49.476;10.986;2022-12-29T02:55:53;97734.13;;;9.30;100.00
12879;BME280;20617;49.476;10.986;2022-12-29T02:58:15;97736.66;;;9.32;100.00
12879;BME280;20617;49.476;10.986;2022-12-29T03:00:21;97736.66;;;9.32;100.00
12879;BME280;20617;49.476;10.986;2022-12-29T03:02:44;97727.81;;;9.36;100.00
12879;BME280;20617;49.476;10.986;2022-12-29T03:07:24;97733.09;;;9.34;100.00
12879;BME280;20617;49.476;10.986;2022-12-29T03:09:37;97726.91;;;9.37;100.00
12879;BME280;20617;49.476;10.986;2022-12-29T03:11:57;97721.50;;;9.41;100.00
12879;BME280;20617;49.476;10.986;2022-12-29T03:14:14;97725.72;;;9.44;100.00
12879;BME280;20617;49.476;10.986;2022-12-29T03:16:42;97723.09;;;9.44;100.00
12879;BME280;20617;49.476;10.986;2022-12-29T03:18:58;97716.84;;;9.48;100.00
12879;BME280;20617;49.476;10.986;2022-12-29T03:21:09;97715.13;;;9.48;100.00
12879;BME280;20617;49.476;10.986;2022-12-29T03:23:17;97715.81;;;9.52;100.00
12879;BME280;20617;49.476;10.986;2022-12-29T03:25:24;97706.09;;;9.56;100.00
12879;BME280;20617;49.476;10.986;2022-12-29T03:27:34;97715.44;;;9.60;100.00
12879;BME280;20617;49.476;10.986;2022-12-29T03:29:45;97715.44;;;9.60;100.00
12879;BME280;20617;49.476;10.986;2022-12-29T03:31:55;97717.88;;;9.63;100.00
12879;BME280;20617;49.476;10.986;2022-12-29T03:34:05;97709.25;;;9.62;100.00
12879;BME280;20617;49.476;10.986;2022-12-29T03:36:23;97717.88;;;9.63;100.00
12879;BME280;20617;49.476;10.986;2022-12-29T03:38:35;97711.72;;;9.65;100.00
12879;BME280;20617;49.476;10.986;2022-12-29T03:40:46;97706.44;;;9.67;100.00
12879;BME280;20617;49.476;10.986;2022-12-29T03:42:53;97712.44;;;9.69;100.00
12879;BME280;20617;49.476;10.986;2022-12-29T03:44:59;97711.50;;;9.70;100.00
12879;BME280;20617;49.476;10.986;2022-12-29T03:47:07;97708.75;;;9.73;100.00
12879;BME280;20617;49.476;10.986;2022-12-29T03:49:15;97707.78;;;9.75;100.00
12879;BME280;20617;49.476;10.986;2022-12-29T03:51:20;97704.34;;;9.75;100.00
12879;BME280;20617;49.476;10.986;2022-12-29T03:53:25;97707.84;;;9.74;100.00
12879;BME280;20617;49.476;10.986;2022-12-29T03:55:30;97706.94;;;9.75;100.00
12879;BME280;20617;49.476;10.986;2022-12-29T03:57:35;97706.00;;;9.76;100.00
12879;BME280;20617;49.476;10.986;2022-12-29T03:59:43;97701.88;;;9.72;100.00
12879;BME280;20617;49.476;10.986;2022-12-29T04:01:48;97706.00;;;9.76;100.00
12879;BME280;20617;49.476;10.986;2022-12-29T04:03:54;97704.94;;;9.80;100.00
12879;BME280;20617;49.476;10.986;2022-12-29T04:06:02;97700.66;;;9.79;100.00
12879;BME280;20617;49.476;10.986;2022-12-29T04:08:22;97701.59;;;9.78;100.00
12879;BME280;20617;49.476;10.986;2022-12-29T04:10:27;97706.78;;;9.78;100.00
12879;BME280;20617;49.476;10.986;2022-12-29T04:12:35;97704.34;;;9.75;100.00
12879;BME280;20617;49.476;10.986;2022-12-29T04:14:40;97706.22;;;9.71;100.00
12879;BME280;20617;49.476;10.986;2022-12-29T04:16:45;97706.59;;;9.64;100.00
12879;BME280;20617;49.476;10.986;2022-12-29T04:18:51;97705.97;;;9.59;100.00
12879;BME280;20617;49.476;10.986;2022-12-29T04:20:57;97703.31;;;9.60;100.00
12879;BME280;20617;49.476;10.986;2022-12-29T04:23:06;97712.00;;;9.59;100.00
12879;BME280;20617;49.476;10.986;2022-12-29T04:25:12;97719.03;;;9.57;100.00
12879;BME280;20617;49.476;10.986;2022-12-29T04:27:19;97715.56;;;9.57;100.00
12879;BME280;20617;49.476;10.986;2022-12-29T04:29:42;97703.44;;;9.57;100.00
12879;BME280;20617;49.476;10.986;2022-12-29T04:32:09;97715.56;;;9.57;100.00
12879;BME280;20617;49.476;10.986;2022-12-29T04:34:20;97713.84;;;9.57;100.00
12879;BME280;20617;49.476;10.986;2022-12-29T04:36:26;97715.53;;;9.58;100.00
12879;BME280;20617;49.476;10.986;2022-12-29T04:38:34;97704.16;;;9.61;100.00
12879;BME280;20617;49.476;10.986;2022-12-29T04:40:40;97699.84;;;9.60;100.00
12879;BME280;20617;49.476;10.986;2022-12-29T04:42:46;97698.03;;;9.62;100.00
12879;BME280;20617;49.476;10.986;2022-12-29T04:44:53;97695.38;;;9.63;100.00
12879;BME280;20617;49.476;10.986;2022-12-29T04:47:36;97692.91;;;9.60;100.00
12879;BME280;20617;49.476;10.986;2022-12-29T04:50:02;97690.47;;;9.57;100.00
12879;BME280;20617;49.476;10.986;2022-12-29T04:52:14;97699.84;;;9.60;100.00
12879;BME280;20617;49.476;10.986;2022-12-29T04:54:22;97694.59;;;9.61;100.00
12879;BME280;20617;49.476;10.986;2022-12-29T04:56:34;97696.56;;;9.56;100.00
12879;BME280;20617;49.476;10.986;2022-12-29T04:58:39;97693.41;;;9.49;100.00
12879;BME280;20617;49.476;10.986;2022-12-29T05:00:44;97692.78;;;9.44;100.00
12879;BME280;20617;49.476;10.986;2022-12-29T05:02:49;97692.22;;;9.38;100.00
12879;BME280;20617;49.476;10.986;2022-12-29T05:04:55;97694.03;;;9.36;100.00
12879;BME280;20617;49.476;10.986;2022-12-29T05:07:02;97696.72;;;9.34;100.00
12879;BME280;20617;49.476;10.986;2022-12-29T05:09:06;97707.94;;;9.35;100.00
12879;BME280;20617;49.476;10.986;2022-12-29T05:11:15;97705.25;;;9.36;100.00
12879;BME280;20617;49.476;10.986;2022-12-29T05:13:22;97711.19;;;9.40;100.00
12879;BME280;20617;49.476;10.986;2022-12-29T05:15:28;97716.25;;;9.43;100.00
12879;BME280;20617;49.476;10.986;2022-12-29T05:17:32;97720.47;;;9.45;100.00
12879;BME280;20617;49.476;10.986;2022-12-29T05:19:38;97717.84;;;9.45;100.00
12879;BME280;20617;49.476;10.986;2022-12-29T05:21:43;97701.50;;;9.43;100.00
12879;BME280;20617;49.476;10.986;2022-12-29T05:23:48;97695.50;;;9.41;100.00
12879;BME280;20617;49.476;10.986;2022-12-29T05:25:53;97705.06;;;9.41;100.00
12879;BME280;20617;49.476;10.986;2022-12-29T05:28:24;97708.84;;;9.34;100.00
12879;BME280;20617;49.476;10.986;2022-12-29T05:30:37;97704.91;;;9.25;100.00
12879;BME280;20617;49.476;10.986;2022-12-29T05:32:42;97701.75;;;9.18;100.00
12879;BME280;20617;49.476;10.986;2022-12-29T05:34:47;97699.53;;;9.11;100.00
12879;BME280;20617;49.476;10.986;2022-12-29T05:36:52;97700.94;;;8.99;100.00
12879;BME280;20617;49.476;10.986;2022-12-29T05:38:58;97693.31;;;8.94;100.00
12879;BME280;20617;49.476;10.986;2022-12-29T05:41:04;97695.13;;;8.92;100.00
12879;BME280;20617;49.476;10.986;2022-12-29T05:43:35;97690.91;;;8.90;100.00
12879;BME280;20617;49.476;10.986;2022-12-29T05:45:55;97690.22;;;8.86;100.00
12879;BME280;20617;49.476;10.986;2022-12-29T05:48:11;97693.94;;;8.80;100.00
12879;BME280;20617;49.476;10.986;2022-12-29T05:50:35;97702.81;;;8.75;100.00
12879;BME280;20617;49.476;10.986;2022-12-29T05:52:46;97703.03;;;8.70;100.00
12879;BME280;20617;49.476;10.986;2022-12-29T05:54:51;97717.88;;;8.67;100.00
12879;BME280;20617;49.476;10.986;2022-12-29T05:56:58;97717.16;;;8.63;100.00
12879;BME280;20617;49.476;10.986;2022-12-29T05:59:07;97724.31;;;8.58;100.00
12879;BME280;20617;49.476;10.986;2022-12-29T06:01:12;97732.22;;;8.55;100.00
12879;BME280;20617;49.476;10.986;2022-12-29T06:03:19;97719.47;;;8.50;100.00
12879;BME280;20617;49.476;10.986;2022-12-29T06:05:26;97718.75;;;8.47;100.00
12879;BME280;20617;49.476;10.986;2022-12-29T06:07:32;97711.09;;;8.44;100.00
12879;BME280;20617;49.476;10.986;2022-12-29T06:09:38;97713.88;;;8.39;100.00
12879;BME280;20617;49.476;10.986;2022-12-29T06:11:44;97715.63;;;8.38;100.00
12879;BME280;20617;49.476;10.986;2022-12-29T06:13:48;97712.16;;;8.38;100.00
12879;BME280;20617;49.476;10.986;2022-12-29T06:15:56;97715.66;;;8.37;100.00
12879;BME280;20617;49.476;10.986;2022-12-29T06:18:02;97707.94;;;8.35;100.00
12879;BME280;20617;49.476;10.986;2022-12-29T06:20:09;97712.31;;;8.35;100.00
12879;BME280;20617;49.476;10.986;2022-12-29T06:22:14;97713.31;;;8.31;100.00
12879;BME280;20617;49.476;10.986;2022-12-29T06:24:20;97712.47;;;8.30;100.00
12879;BME280;20617;49.476;10.986;2022-12-29T06:26:25;97705.75;;;8.26;100.00
12879;BME280;20617;49.476;10.986;2022-12-29T06:28:30;97704.16;;;8.22;100.00
12879;BME280;20617;49.476;10.986;2022-12-29T06:30:35;97701.66;;;8.21;100.00
12879;BME280;20617;49.476;10.986;2022-12-29T06:32:44;97706.75;;;8.22;100.00
12879;BME280;20617;49.476;10.986;2022-12-29T06:34:49;97705.88;;;8.23;100.00
12879;BME280;20617;49.476;10.986;2022-12-29T06:36:54;97698.03;;;8.25;100.00
12879;BME280;20617;49.476;10.986;2022-12-29T06:38:59;97713.41;;;8.29;100.00
12879;BME280;20617;49.476;10.986;2022-12-29T06:41:04;97709.94;;;8.29;100.00
12879;BME280;20617;49.476;10.986;2022-12-29T06:43:08;97721.34;;;8.25;100.00
12879;BME280;20617;49.476;10.986;2022-12-29T06:45:21;97728.34;;;8.23;100.00
12879;BME280;20617;49.476;10.986;2022-12-29T06:47:26;97726.78;;;8.19;100.00
12879;BME280;20617;49.476;10.986;2022-12-29T06:49:34;97725.88;;;8.20;100.00
12879;BME280;20617;49.476;10.986;2022-12-29T06:51:39;97736.31;;;8.18;100.00
12879;BME280;20617;49.476;10.986;2022-12-29T06:53:44;97725.16;;;8.16;100.00
12879;BME280;20617;49.476;10.986;2022-12-29T06:55:49;97724.31;;;8.15;100.00
12879;BME280;20617;49.476;10.986;2022-12-29T06:57:54;97726.00;;;8.16;100.00
12879;BME280;20617;49.476;10.986;2022-12-29T06:59:59;97712.38;;;8.11;100.00
12879;BME280;20617;49.476;10.986;2022-12-29T07:02:04;97708.19;;;8.09;100.00
12879;BME280;20617;49.476;10.986;2022-12-29T07:04:09;97710.91;;;8.06;100.00
12879;BME280;20617;49.476;10.986;2022-12-29T07:06:17;97714.47;;;8.03;100.00
12879;BME280;20617;49.476;10.986;2022-12-29T07:08:22;97709.19;;;8.05;100.00
12879;BME280;20617;49.476;10.986;2022-12-29T07:10:27;97709.19;;;8.05;100.00
12879;BME280;20617;49.476;10.986;2022-12-29T07:12:32;97718.84;;;8.01;100.00
12879;BME280;20617;49.476;10.986;2022-12-29T07:14:37;97718.03;;;8.01;100.00
12879;BME280;20617;49.476;10.986;2022-12-29T07:16:44;97722.38;;;8.00;100.00
12879;BME280;20617;49.476;10.986;2022-12-29T07:18:49;97716.31;;;8.00;100.00
12879;BME280;20617;49.476;10.986;2022-12-29T07:20:54;97724.16;;;7.98;100.00
12879;BME280;20617;49.476;10.986;2022-12-29T07:23:01;97727.47;;;8.02;100.00
12879;BME280;20617;49.476;10.986;2022-12-29T07:25:09;97726.38;;;8.07;100.00
12879;BME280;20617;49.476;10.986;2022-12-29T07:27:15;97727.75;;;8.16;100.00
12879;BME280;20617;49.476;10.986;2022-12-29T07:29:20;97729.22;;;8.23;100.00
12879;BME280;20617;49.476;10.986;2022-12-29T07:31:25;97735.94;;;8.27;100.00
12879;BME280;20617;49.476;10.986;2022-12-29T07:33:30;97742.63;;;8.33;100.00
12879;BME280;20617;49.476;10.986;2022-12-29T07:35:35;97728.81;;;8.32;100.00
12879;BME280;20617;49.476;10.986;2022-12-29T07:37:39;97723.63;;;8.32;100.00
12879;BME280;20617;49.476;10.986;2022-12-29T07:39:47;97735.47;;;8.39;100.00
12879;BME280;20617;49.476;10.986;2022-12-29T07:41:52;97720.44;;;8.48;100.00
12879;BME280;20617;49.476;10.986;2022-12-29T07:44:12;97734.75;;;8.56;100.00
12879;BME280;20617;49.476;10.986;2022-12-29T07:46:33;97734.38;;;8.66;100.00
12879;BME280;20617;49.476;10.986;2022-12-29T07:48:58;97740.00;;;8.75;100.00
12879;BME280;20617;49.476;10.986;2022-12-29T07:51:03;97736.38;;;8.79;100.00
12879;BME280;20617;49.476;10.986;2022-12-29T07:53:08;97731.06;;;8.82;100.00
12879;BME280;20617;49.476;10.986;2022-12-29T07:55:16;97735.31;;;8.83;100.00
12879;BME280;20617;49.476;10.986;2022-12-29T07:57:21;97729.72;;;8.93;100.00
12879;BME280;20617;49.476;10.986;2022-12-29T07:59:32;97734.66;;;8.99;100.00
12879;BME280;20617;49.476;10.986;2022-12-29T08:01:37;97729.25;;;9.03;100.00
12879;BME280;20617;49.476;10.986;2022-12-29T08:03:44;97723.09;;;9.06;100.00
12879;BME280;20617;49.476;10.986;2022-12-29T08:05:58;97709.13;;;9.09;100.00
12879;BME280;20617;49.476;10.986;2022-12-29T08:08:03;97715.88;;;9.13;100.00
12879;BME280;20617;49.476;10.986;2022-12-29T08:10:09;97728.72;;;9.16;100.00
12879;BME280;20617;49.476;10.986;2022-12-29T08:12:16;97718.13;;;9.20;100.00
12879;BME280;20617;49.476;10.986;2022-12-29T08:14:21;97715.38;;;9.23;100.00
12879;BME280;20617;49.476;10.986;2022-12-29T08:16:26;97719.47;;;9.29;100.00
12879;BME280;20617;49.476;10.986;2022-12-29T08:18:31;97717.66;;;9.31;100.00
12879;BME280;20617;49.476;10.986;2022-12-29T08:20:36;97718.41;;;9.33;100.00
12879;BME280;20617;49.476;10.986;2022-12-29T08:22:41;97723.31;;;9.39;100.00
12879;BME280;20617;49.476;10.986;2022-12-29T08:24:46;97713.69;;;9.41;100.00
12879;BME280;20617;49.476;10.986;2022-12-29T08:26:51;97714.25;;;9.48;100.00
12879;BME280;20617;49.476;10.986;2022-12-29T08:28:59;97724.38;;;9.54;100.00
12879;BME280;20617;49.476;10.986;2022-12-29T08:31:04;97720.72;;;9.58;100.00
12879;BME280;20617;49.476;10.986;2022-12-29T08:33:09;97713.63;;;9.62;100.00
12879;BME280;20617;49.476;10.986;2022-12-29T08:35:15;97723.22;;;9.60;100.00
12879;BME280;20617;49.476;10.986;2022-12-29T08:37:20;97723.16;;;9.61;100.00
12879;BME280;20617;49.476;10.986;2022-12-29T08:39:32;97733.56;;;9.61;100.00
12879;BME280;20617;49.476;10.986;2022-12-29T08:41:36;97731.88;;;9.60;100.00
12879;BME280;20617;49.476;10.986;2022-12-29T08:43:45;97730.63;;;9.69;100.00
12879;BME280;20617;49.476;10.986;2022-12-29T08:45:53;97739.25;;;9.69;100.00
12879;BME280;20617;49.476;10.986;2022-12-29T08:47:58;97738.88;;;9.77;100.00
12879;BME280;20617;49.476;10.986;2022-12-29T08:50:21;97735.00;;;9.86;100.00
12879;BME280;20617;49.476;10.986;2022-12-29T08:52:26;97731.25;;;9.91;100.00
12879;BME280;20617;49.476;10.986;2022-12-29T08:54:31;97732.03;;;9.93;100.00
12879;BME280;20617;49.476;10.986;2022-12-29T08:56:36;97728.00;;;10.05;100.00
12879;BME280;20617;49.476;10.986;2022-12-29T08:58:41;97732.28;;;10.06;100.00
12879;BME280;20617;49.476;10.986;2022-12-29T09:00:46;97737.34;;;10.09;100.00
12879;BME280;20617;49.476;10.986;2022-12-29T09:02:54;97737.13;;;10.14;100.00
12879;BME280;20617;49.476;10.986;2022-12-29T09:04:59;97738.94;;;10.12;100.00
12879;BME280;20617;49.476;10.986;2022-12-29T09:07:04;97733.53;;;10.16;100.00
12879;BME280;20617;49.476;10.986;2022-12-29T09:09:10;97735.06;;;10.20;100.00
12879;BME280;20617;49.476;10.986;2022-12-29T09:11:18;97728.03;;;10.23;100.00
12879;BME280;20617;49.476;10.986;2022-12-29T09:13:24;97726.91;;;10.28;100.00
12879;BME280;20617;49.476;10.986;2022-12-29T09:15:29;97731.97;;;10.31;100.00
12879;BME280;20617;49.476;10.986;2022-12-29T09:17:34;97725.69;;;10.35;100.00
12879;BME280;20617;49.476;10.986;2022-12-29T09:19:45;97729.91;;;10.38;100.00
12879;BME280;20617;49.476;10.986;2022-12-29T09:21:50;97730.47;;;10.45;100.00
12879;BME280;20617;49.476;10.986;2022-12-29T09:23:55;97732.66;;;10.52;100.00
12879;BME280;20617;49.476;10.986;2022-12-29T09:26:00;97738.53;;;10.56;100.00
12879;BME280;20617;49.476;10.986;2022-12-29T09:28:05;97732.19;;;10.61;100.00
12879;BME280;20617;49.476;10.986;2022-12-29T09:30:12;97731.97;;;10.66;100.00
12879;BME280;20617;49.476;10.986;2022-12-29T09:32:17;97736.78;;;10.74;100.00
12879;BME280;20617;49.476;10.986;2022-12-29T09:34:25;97728.50;;;10.83;100.00
12879;BME280;20617;49.476;10.986;2022-12-29T09:36:34;97737.66;;;10.90;100.00
12879;BME280;20617;49.476;10.986;2022-12-29T09:38:39;97728.69;;;10.96;100.00
12879;BME280;20617;49.476;10.986;2022-12-29T09:40:46;97730.97;;;11.02;100.00
12879;BME280;20617;49.476;10.986;2022-12-29T09:43:17;97725.38;;;11.09;100.00
12879;BME280;20617;49.476;10.986;2022-12-29T09:45:30;97727.66;;;11.16;100.00
12879;BME280;20617;49.476;10.986;2022-12-29T09:47:37;97725.72;;;11.19;100.00
12879;BME280;20617;49.476;10.986;2022-12-29T09:49:45;97730.53;;;11.27;100.00
12879;BME280;20617;49.476;10.986;2022-12-29T09:51:57;97720.72;;;11.32;100.00
12879;BME280;20617;49.476;10.986;2022-12-29T09:54:20;97722.22;;;11.36;100.00
12879;BME280;20617;49.476;10.986;2022-12-29T09:56:27;97724.50;;;11.42;100.00
12879;BME280;20617;49.476;10.986;2022-12-29T09:58:37;97717.88;;;11.52;100.00
12879;BME280;20617;49.476;10.986;2022-12-29T10:00:49;97714.50;;;11.50;100.00
12879;BME280;20617;49.476;10.986;2022-12-29T10:02:59;97718.63;;;11.54;100.00
12879;BME280;20617;49.476;10.986;2022-12-29T10:05:22;97720.91;;;11.61;100.00
12879;BME280;20617;49.476;10.986;2022-12-29T10:07:38;97715.69;;;11.61;100.00
12879;BME280;20617;49.476;10.986;2022-12-29T10:09:53;97708.78;;;11.60;100.00
12879;BME280;20617;49.476;10.986;2022-12-29T10:12:14;97717.38;;;11.62;100.00
12879;BME280;20617;49.476;10.986;2022-12-29T10:14:33;97716.53;;;11.61;100.00
12879;BME280;20617;49.476;10.986;2022-12-29T10:16:49;97714.94;;;11.59;100.00
12879;BME280;20617;49.476;10.986;2022-12-29T10:19:10;97713.09;;;11.61;100.00
12879;BME280;20617;49.476;10.986;2022-12-29T10:21:28;97708.53;;;11.64;100.00
12879;BME280;20617;49.476;10.986;2022-12-29T10:23:45;97708.59;;;11.63;100.00
12879;BME280;20617;49.476;10.986;2022-12-29T10:25:53;97713.00;;;11.62;100.00
12879;BME280;20617;49.476;10.986;2022-12-29T10:28:04;97719.69;;;11.66;100.00
12879;BME280;20617;49.476;10.986;2022-12-29T10:30:12;97705.28;;;11.61;100.00
12879;BME280;20617;49.476;10.986;2022-12-29T10:32:24;97704.94;;;11.67;100.00
12879;BME280;20617;49.476;10.986;2022-12-29T10:34:36;97688.94;;;11.73;100.00
12879;BME280;20617;49.476;10.986;2022-12-29T10:36:43;97691.97;;;11.81;100.00
12879;BME280;20617;49.476;10.986;2022-12-29T10:39:02;97693.25;;;11.90;100.00
12879;BME280;20617;49.476;10.986;2022-12-29T10:41:15;97688.50;;;11.96;100.00
12879;BME280;20617;49.476;10.986;2022-12-29T10:43:26;97680.50;;;11.99;100.00
12879;BME280;20617;49.476;10.986;2022-12-29T10:45:32;97685.44;;;12.04;100.00
12879;BME280;20617;49.476;10.986;2022-12-29T10:47:52;97670.47;;;12.08;100.00
12879;BME280;20617;49.476;10.986;2022-12-29T10:49:59;97676.25;;;12.13;100.00
12879;BME280;20617;49.476;10.986;2022-12-29T10:52:06;97674.22;;;12.18;100.00
12879;BME280;20617;49.476;10.986;2022-12-29T10:54:19;97672.03;;;12.26;100.00
12879;BME280;20617;49.476;10.986;2022-12-29T10:56:33;97669.22;;;12.29;100.00
12879;BME280;20617;49.476;10.986;2022-12-29T10:58:39;97665.69;;;12.30;100.00
12879;BME280;20617;49.476;10.986;2022-12-29T11:00:53;97658.53;;;12.34;100.00
12879;BME280;20617;49.476;10.986;2022-12-29T11:05:41;97655.44;;;12.41;100.00
12879;BME280;20617;49.476;10.986;2022-12-29T11:07:55;97661.34;;;12.45;100.00
12879;BME280;20617;49.476;10.986;2022-12-29T11:10:30;97662.66;;;12.52;100.00
12879;BME280;20617;49.476;10.986;2022-12-29T11:12:35;97657.19;;;12.57;100.00
12879;BME280;20617;49.476;10.986;2022-12-29T11:14:41;97657.81;;;12.60;100.00
12879;BME280;20617;49.476;10.986;2022-12-29T11:16:56;97650.75;;;12.62;100.00
12879;BME280;20617;49.476;10.986;2022-12-29T11:19:02;97662.75;;;12.65;100.00
12879;BME280;20617;49.476;10.986;2022-12-29T11:21:09;97669.03;;;12.62;100.00
12879;BME280;20617;49.476;10.986;2022-12-29T11:23:33;97663.69;;;12.64;100.00